createdAt,value
2019-06-27T00:01:10.967Z,27.20
2019-06-27T00:03:41.131Z,27.10
2019-06-27T00:06:11.307Z,27.10
2019-06-27T00:08:41.436Z,27.00
2019-06-27T00:11:11.572Z,26.90
2019-06-27T00:13:41.694Z,26.90
2019-06-27T00:16:12.648Z,26.90
2019-06-27T00:18:43.063Z,26.90
2019-06-27T00:21:13.339Z,26.90
2019-06-27T00:23:43.903Z,26.80
2019-06-27T00:26:14.042Z,26.80
2019-06-27T00:28:44.520Z,26.70
2019-06-27T00:31:14.870Z,26.60
2019-06-27T00:33:47.452Z,26.70
2019-06-27T00:38:47.365Z,26.60
2019-06-27T00:41:18.883Z,26.60
2019-06-27T00:43:48.973Z,26.70
2019-06-27T00:46:19.424Z,26.50
2019-06-27T00:48:51.127Z,26.50
2019-06-27T00:51:21.170Z,26.40
2019-06-27T00:53:51.237Z,26.40
2019-06-27T00:56:21.558Z,26.40
2019-06-27T00:58:51.710Z,26.40
2019-06-27T01:01:21.934Z,26.40
2019-06-27T01:03:52.183Z,26.30
2019-06-27T01:06:23.201Z,26.30
2019-06-27T01:08:53.477Z,26.20
2019-06-27T01:11:23.834Z,26.10
2019-06-27T01:13:54.099Z,26.10
2019-06-27T01:16:24.335Z,26.00
2019-06-27T01:18:54.759Z,26.00
2019-06-27T01:21:24.875Z,26.00
2019-06-27T01:23:55.866Z,25.90
2019-06-27T01:26:26.070Z,25.90
2019-06-27T01:28:56.430Z,25.90
2019-06-27T01:31:26.566Z,25.90
2019-06-27T01:33:57.162Z,25.90
2019-06-27T01:36:27.297Z,25.90
2019-06-27T01:38:57.764Z,25.90
2019-06-27T01:41:27.808Z,25.90
2019-06-27T01:43:58.008Z,25.90
2019-06-27T01:46:29.220Z,25.90
2019-06-27T01:48:59.449Z,25.90
2019-06-27T01:51:29.979Z,25.80
2019-06-27T01:54:00.102Z,25.80
2019-06-27T01:56:30.133Z,25.90
2019-06-27T01:59:00.160Z,25.80
2019-06-27T02:01:30.477Z,25.80
2019-06-27T02:04:00.608Z,25.70
2019-06-27T02:06:30.687Z,25.70
2019-06-27T02:09:00.831Z,25.60
2019-06-27T02:11:31.346Z,25.60
2019-06-27T02:14:01.486Z,25.60
2019-06-27T02:16:31.573Z,25.60
2019-06-27T02:19:01.611Z,25.60
2019-06-27T02:21:32.173Z,25.60
2019-06-27T02:24:03.774Z,25.60
2019-06-27T02:26:34.018Z,25.60
2019-06-27T02:29:04.190Z,25.60
2019-06-27T02:31:35.130Z,25.60
2019-06-27T02:34:07.010Z,25.60
2019-06-27T02:36:37.054Z,25.40
2019-06-27T02:39:07.272Z,25.60
2019-06-27T02:41:37.431Z,25.50
2019-06-27T02:44:07.862Z,25.40
2019-06-27T02:46:40.289Z,25.40
2019-06-27T02:49:10.863Z,25.40
2019-06-27T02:51:41.059Z,25.30
2019-06-27T02:54:11.522Z,25.20
2019-06-27T02:56:41.591Z,25.30
2019-06-27T02:59:11.923Z,25.30
2019-06-27T03:01:41.947Z,25.20
2019-06-27T03:04:12.251Z,25.20
2019-06-27T03:06:42.464Z,25.20
2019-06-27T03:09:12.802Z,24.10
2019-06-27T03:11:43.021Z,25.10
2019-06-27T03:14:14.181Z,24.80
2019-06-27T03:16:44.384Z,25.10
2019-06-27T03:19:17.586Z,25.10
2019-06-27T03:21:47.728Z,25.30
2019-06-27T03:24:18.153Z,25.00
2019-06-27T03:26:48.485Z,24.00
2019-06-27T03:29:20.448Z,25.00
2019-06-27T03:31:50.769Z,24.90
2019-06-27T03:34:20.907Z,24.90
2019-06-27T03:36:53.200Z,24.80
2019-06-27T03:39:23.347Z,24.90
2019-06-27T03:41:55.605Z,24.80
2019-06-27T03:44:26.258Z,24.80
2019-06-27T03:46:56.705Z,24.80
2019-06-27T03:49:26.848Z,24.80
2019-06-27T03:51:57.148Z,24.80
2019-06-27T03:54:27.182Z,24.80
2019-06-27T03:56:57.216Z,24.80
2019-06-27T03:59:27.530Z,24.80
2019-06-27T04:01:57.652Z,24.80
2019-06-27T04:04:27.986Z,24.80
2019-06-27T04:06:58.103Z,24.80
2019-06-27T04:09:28.289Z,24.80
2019-06-27T04:11:58.812Z,24.80
2019-06-27T04:14:29.255Z,24.80
2019-06-27T04:16:59.440Z,24.90
2019-06-27T04:19:30.460Z,24.90
2019-06-27T04:22:00.664Z,25.10
2019-06-27T04:24:31.132Z,25.00
2019-06-27T04:27:01.335Z,25.90
2019-06-27T04:29:34.162Z,25.30
2019-06-27T04:32:04.909Z,25.30
2019-06-27T04:34:35.389Z,25.50
2019-06-27T04:37:05.983Z,25.60
2019-06-27T04:39:36.197Z,25.70
2019-06-27T04:42:06.486Z,25.70
2019-06-27T04:44:39.405Z,26.00
2019-06-27T04:47:09.798Z,25.90
2019-06-27T04:49:40.293Z,25.90
2019-06-27T04:52:10.555Z,26.10
2019-06-27T04:54:43.386Z,26.10
2019-06-27T04:57:13.601Z,27.60
2019-06-27T04:59:53.569Z,26.10
2019-06-27T05:02:15.964Z,24.40
2019-06-27T05:04:46.861Z,26.30
2019-06-27T05:07:17.052Z,26.30
2019-06-27T05:09:47.574Z,26.40
2019-06-27T05:12:17.957Z,26.50
2019-06-27T05:14:48.576Z,26.60
2019-06-27T05:17:19.940Z,26.80
2019-06-27T05:19:51.051Z,26.70
2019-06-27T05:22:21.307Z,26.70
2019-06-27T05:24:51.912Z,26.80
2019-06-27T05:27:24.887Z,27.00
2019-06-27T05:30:08.124Z,27.00
2019-06-27T05:34:59.680Z,27.10
2019-06-27T05:37:30.236Z,27.30
2019-06-27T05:40:01.756Z,27.30
2019-06-27T05:45:02.017Z,27.50
2019-06-27T05:47:33.549Z,27.60
2019-06-27T05:50:04.184Z,27.60
2019-06-27T05:52:34.852Z,27.70
2019-06-27T05:55:05.106Z,27.40
2019-06-27T05:57:35.543Z,27.80
2019-06-27T06:00:26.672Z,27.90
2019-06-27T06:02:41.888Z,28.80
2019-06-27T06:05:12.519Z,28.00
2019-06-27T06:07:42.739Z,28.20
2019-06-27T06:10:13.363Z,28.10
2019-06-27T06:12:43.821Z,28.20
2019-06-27T06:15:14.119Z,28.40
2019-06-27T06:17:44.336Z,28.30
2019-06-27T06:20:15.112Z,28.50
2019-06-27T06:22:45.392Z,28.60
2019-06-27T06:25:17.152Z,28.60
2019-06-27T06:27:47.707Z,28.70
2019-06-27T06:30:19.578Z,27.00
2019-06-27T06:32:50.010Z,28.90
2019-06-27T06:35:24.506Z,29.00
2019-06-27T06:37:55.157Z,29.00
2019-06-27T06:40:27.729Z,29.20
2019-06-27T06:43:00.535Z,29.20
2019-06-27T06:45:30.367Z,29.40
2019-06-27T06:48:00.635Z,33.00
2019-06-27T06:50:33.841Z,29.50
2019-06-27T06:53:05.003Z,29.50
2019-06-27T06:55:44.820Z,29.70
2019-06-27T06:58:15.433Z,29.80
2019-06-27T07:01:00.329Z,29.80
2019-06-27T07:05:48.254Z,29.90
2019-06-27T07:08:18.588Z,30.00
2019-06-27T07:10:48.953Z,30.10
2019-06-27T07:13:19.219Z,30.20
2019-06-27T07:15:49.546Z,30.30
2019-06-27T07:18:21.622Z,30.30
2019-06-27T07:20:51.754Z,30.50
2019-06-27T07:23:22.295Z,30.50
2019-06-27T07:25:52.583Z,30.60
2019-06-27T07:28:22.755Z,31.00
2019-06-27T07:30:53.066Z,31.00
2019-06-27T07:35:52.760Z,31.20
2019-06-27T07:38:23.215Z,31.30
2019-06-27T07:45:54.469Z,31.60
2019-06-27T07:48:26.053Z,32.90
2019-06-27T07:53:26.820Z,31.70
2019-06-27T07:55:57.481Z,31.70
2019-06-27T07:58:27.646Z,31.80
2019-06-27T08:00:58.060Z,31.80
2019-06-27T08:03:28.227Z,32.00
2019-06-27T08:05:58.808Z,32.00
2019-06-27T08:08:28.930Z,32.10
2019-06-27T08:10:59.236Z,32.10
2019-06-27T08:13:29.880Z,32.20
2019-06-27T08:16:00.101Z,32.20
2019-06-27T08:18:30.446Z,32.20
2019-06-27T08:21:00.662Z,32.20
2019-06-27T08:23:41.140Z,32.30
2019-06-27T08:26:02.847Z,32.40
2019-06-27T08:28:34.203Z,32.50
2019-06-27T08:31:04.517Z,32.60
2019-06-27T08:33:34.651Z,32.70
2019-06-27T08:36:06.705Z,32.70
2019-06-27T08:41:06.991Z,32.90
2019-06-27T08:43:37.527Z,33.80
2019-06-27T08:46:07.888Z,32.90
2019-06-27T08:48:39.405Z,32.90
2019-06-27T08:51:09.610Z,32.90
2019-06-27T08:53:40.073Z,33.10
2019-06-27T09:01:09.240Z,33.10
2019-06-27T09:06:09.103Z,33.30
2019-06-27T09:08:39.383Z,33.30
2019-06-27T09:13:42.577Z,33.60
2019-06-27T09:16:13.072Z,33.70
2019-06-27T09:18:43.368Z,33.70
2019-06-27T09:21:14.260Z,33.80
2019-06-27T09:23:44.404Z,33.90
2019-06-27T09:26:15.592Z,33.90
2019-06-27T09:28:46.226Z,34.00
2019-06-27T09:31:16.962Z,34.10
2019-06-27T09:36:18.730Z,34.30
2019-06-27T09:38:48.989Z,34.30
2019-06-27T09:41:19.554Z,34.30
2019-06-27T09:43:49.918Z,34.30
2019-06-27T09:46:20.304Z,35.30
2019-06-27T09:48:50.429Z,34.40
2019-06-27T09:51:21.124Z,34.50
2019-06-27T09:53:52.751Z,34.50
2019-06-27T09:56:23.109Z,34.60
2019-06-27T09:58:54.060Z,34.20
2019-06-27T10:03:54.426Z,34.70
2019-06-27T10:06:26.399Z,34.60
2019-06-27T10:08:57.035Z,34.60
2019-06-27T10:11:27.360Z,36.20
2019-06-27T10:14:05.355Z,34.80
2019-06-27T10:16:37.499Z,35.00
2019-06-27T10:21:44.267Z,35.20
2019-06-27T10:24:16.574Z,35.30
2019-06-27T10:26:50.179Z,35.20
2019-06-27T10:29:20.338Z,35.40
2019-06-27T10:31:50.606Z,35.40
2019-06-27T10:34:21.266Z,35.30
2019-06-27T10:36:52.976Z,35.60
2019-06-27T10:39:23.553Z,35.40
2019-06-27T10:41:53.766Z,35.30
2019-06-27T10:44:24.177Z,35.30
2019-06-27T10:49:24.962Z,35.50
2019-06-27T10:51:56.411Z,35.50
2019-06-27T10:54:26.757Z,35.50
2019-06-27T10:56:57.617Z,35.60
2019-06-27T10:59:28.108Z,35.70
2019-06-27T11:02:01.211Z,35.70
2019-06-27T11:04:31.459Z,35.70
2019-06-27T11:07:01.697Z,35.80
2019-06-27T11:14:31.672Z,37.50
2019-06-27T11:19:51.430Z,36.20
2019-06-27T11:22:11.018Z,36.30
2019-06-27T11:24:43.717Z,36.40
2019-06-27T11:27:27.225Z,36.40
2019-06-27T11:29:56.016Z,37.70
2019-06-27T11:32:26.178Z,36.50
2019-06-27T11:34:56.721Z,36.60
2019-06-27T11:37:27.249Z,36.60
2019-06-27T11:39:57.764Z,36.70
2019-06-27T11:42:29.866Z,36.70
2019-06-27T11:44:59.990Z,36.70
2019-06-27T11:47:30.160Z,36.60
2019-06-27T11:50:00.623Z,36.60
2019-06-27T12:00:02.099Z,36.30
2019-06-27T12:02:32.654Z,36.60
2019-06-27T12:05:02.897Z,36.60
2019-06-27T12:07:33.166Z,38.40
2019-06-27T12:10:03.338Z,36.90
2019-06-27T12:15:03.542Z,36.90
2019-06-27T12:17:33.851Z,36.80
2019-06-27T12:25:03.939Z,36.90
2019-06-27T12:27:34.350Z,36.00
2019-06-27T12:30:05.009Z,37.00
2019-06-27T12:32:50.348Z,37.20
2019-06-27T12:37:39.911Z,37.40
2019-06-27T12:40:10.643Z,34.70
2019-06-27T12:42:42.482Z,39.20
2019-06-27T12:45:13.050Z,37.80
2019-06-27T12:47:43.245Z,37.50
2019-06-27T12:52:43.711Z,37.70
2019-06-27T12:55:14.422Z,37.30
2019-06-27T12:57:44.697Z,37.90
2019-06-27T13:00:15.958Z,38.00
2019-06-27T13:02:46.448Z,38.00
2019-06-27T13:07:46.749Z,38.00
2019-06-27T13:12:47.737Z,37.90
2019-06-27T13:15:18.670Z,37.90
2019-06-27T13:17:49.213Z,37.90
2019-06-27T13:20:19.964Z,38.10
2019-06-27T13:22:50.232Z,38.20
2019-06-27T13:27:51.348Z,38.30
2019-06-27T13:30:25.085Z,38.50
2019-06-27T13:33:05.953Z,38.40
2019-06-27T13:35:42.893Z,38.50
2019-06-27T13:40:48.342Z,39.30
2019-06-27T13:43:19.194Z,39.70
2019-06-27T13:45:50.315Z,41.00
2019-06-27T13:48:21.052Z,40.20
2019-06-27T13:50:57.683Z,40.50
2019-06-27T13:53:27.540Z,40.60
2019-06-27T13:55:58.840Z,40.30
2019-06-27T13:58:29.658Z,40.30
2019-06-27T14:03:30.501Z,40.80
2019-06-27T14:06:03.289Z,41.00
2019-06-27T14:08:33.918Z,40.90
2019-06-27T14:11:05.378Z,41.10
2019-06-27T14:13:37.395Z,41.30
2019-06-27T14:16:07.585Z,41.20
2019-06-27T14:18:37.807Z,41.30
2019-06-27T14:21:08.768Z,41.20
2019-06-27T14:23:40.034Z,41.40
2019-06-27T14:26:15.232Z,41.40
2019-06-27T14:28:45.779Z,41.40
2019-06-27T14:31:17.274Z,41.40
2019-06-27T14:33:48.265Z,41.70
2019-06-27T14:36:19.207Z,41.90
2019-06-27T14:38:50.179Z,41.90
2019-06-27T14:41:21.241Z,41.80
2019-06-27T14:43:51.711Z,41.80
2019-06-27T14:46:27.329Z,41.90
2019-06-27T14:48:57.794Z,41.80
2019-06-27T14:51:28.446Z,42.10
2019-06-27T14:53:59.491Z,42.30
2019-06-27T14:56:30.415Z,42.40
2019-06-27T14:59:04.308Z,42.40
2019-06-27T15:01:36.095Z,42.50
2019-06-27T15:04:06.839Z,42.60
2019-06-27T15:06:38.127Z,41.70
2019-06-27T15:09:10.253Z,43.50
2019-06-27T15:11:40.878Z,42.60
2019-06-27T15:14:11.287Z,46.40
2019-06-27T15:16:41.501Z,42.80
2019-06-27T15:19:13.936Z,42.90
2019-06-27T15:21:45.057Z,42.80
2019-06-27T15:24:15.884Z,42.60
2019-06-27T15:26:47.125Z,42.60
2019-06-27T15:29:17.609Z,43.50
2019-06-27T15:34:20.416Z,42.40
2019-06-27T15:39:21.600Z,42.30
2019-06-27T15:41:51.748Z,42.60
2019-06-27T15:44:22.014Z,41.60
2019-06-27T15:46:54.218Z,42.70
2019-06-27T15:49:25.465Z,42.70
2019-06-27T15:54:25.776Z,43.10
2019-06-27T15:56:56.002Z,43.40
2019-06-27T15:59:26.429Z,43.40
2019-06-27T16:01:56.951Z,43.40
2019-06-27T16:04:32.806Z,45.10
2019-06-27T16:07:00.314Z,43.10
2019-06-27T16:09:32.479Z,42.40
2019-06-27T16:17:05.000Z,40.80
2019-06-27T16:19:37.096Z,40.10
2019-06-27T16:22:07.576Z,39.80
2019-06-27T16:24:37.784Z,39.50
2019-06-27T16:27:08.197Z,39.50
2019-06-27T16:29:38.417Z,39.60
2019-06-27T16:32:08.511Z,39.90
2019-06-27T16:34:38.648Z,40.10
2019-06-27T16:37:08.983Z,40.10
2019-06-27T16:39:40.140Z,40.40
2019-06-27T16:42:10.812Z,40.70
2019-06-27T16:44:40.942Z,40.70
2019-06-27T16:47:11.235Z,40.70
2019-06-27T16:49:42.812Z,40.80
2019-06-27T16:52:14.652Z,40.90
2019-06-27T16:54:44.862Z,40.70
2019-06-27T16:57:15.495Z,40.60
2019-06-27T16:59:46.678Z,40.50
2019-06-27T17:02:16.922Z,40.30
2019-06-27T17:04:47.382Z,40.20
2019-06-27T17:07:19.755Z,39.90
2019-06-27T17:09:51.875Z,39.40
2019-06-27T17:12:22.384Z,39.10
2019-06-27T17:14:53.634Z,38.70
2019-06-27T17:17:23.855Z,38.50
2019-06-27T17:19:53.971Z,38.40
2019-06-27T17:22:24.303Z,38.20
2019-06-27T17:24:54.826Z,35.70
2019-06-27T17:27:25.924Z,37.80
2019-06-27T17:29:57.566Z,37.50
2019-06-27T17:32:27.976Z,37.30
2019-06-27T17:34:58.323Z,37.20
2019-06-27T17:37:28.436Z,37.00
2019-06-27T17:39:59.027Z,37.00
2019-06-27T17:42:32.220Z,36.90
2019-06-27T17:45:02.302Z,36.70
2019-06-27T17:47:32.397Z,36.70
2019-06-27T17:50:02.443Z,36.60
2019-06-27T17:52:34.344Z,36.50
2019-06-27T17:55:04.658Z,36.40
2019-06-27T17:57:34.978Z,36.20
2019-06-27T18:00:06.348Z,36.20
2019-06-27T18:02:36.955Z,36.10
2019-06-27T18:05:07.291Z,36.10
2019-06-27T18:07:37.920Z,36.00
2019-06-27T18:10:08.719Z,35.90
2019-06-27T18:12:38.983Z,35.80
2019-06-27T18:15:09.585Z,35.80
2019-06-27T18:17:40.142Z,35.70
2019-06-27T18:20:11.656Z,35.60
2019-06-27T18:22:42.410Z,35.50
2019-06-27T18:25:12.813Z,35.40
2019-06-27T18:27:43.419Z,35.40
2019-06-27T18:30:15.535Z,35.30
2019-06-27T18:32:45.894Z,35.30
2019-06-27T18:35:19.177Z,35.10
2019-06-27T18:37:50.111Z,35.00
2019-06-27T18:40:20.978Z,34.90
2019-06-27T18:45:20.901Z,34.70
2019-06-27T18:47:51.106Z,34.50
2019-06-27T18:50:21.330Z,34.30
2019-06-27T18:52:52.419Z,34.30
2019-06-27T18:55:22.954Z,34.10
2019-06-27T18:57:56.809Z,34.10
2019-06-27T19:00:27.505Z,34.00
2019-06-27T19:02:57.762Z,33.80
2019-06-27T19:05:27.973Z,33.80
2019-06-27T19:07:58.613Z,33.60
2019-06-27T19:10:29.011Z,33.60
2019-06-27T19:12:59.262Z,33.60
2019-06-27T19:15:29.447Z,33.50
2019-06-27T19:17:59.943Z,33.50
2019-06-27T19:20:38.420Z,33.50
2019-06-27T19:23:36.871Z,33.30
2019-06-27T19:26:07.057Z,33.30
2019-06-27T19:28:38.936Z,33.30
2019-06-27T19:38:38.243Z,32.70
2019-06-27T19:41:08.370Z,31.40
2019-06-27T19:43:41.128Z,32.70
2019-06-27T19:46:11.339Z,32.60
2019-06-27T19:48:45.377Z,32.50
2019-06-27T19:51:13.694Z,32.40
2019-06-27T19:53:43.844Z,32.30
2019-06-27T19:56:16.129Z,32.20
2019-06-27T19:58:46.666Z,32.90
2019-06-27T20:03:46.743Z,32.00
2019-06-27T20:06:17.252Z,31.90
2019-06-27T20:11:17.311Z,31.80
2019-06-27T20:13:47.802Z,31.70
2019-06-27T20:16:18.137Z,31.50
2019-06-27T20:21:17.979Z,31.40
2019-06-27T20:28:47.599Z,31.30
2019-06-27T20:31:19.983Z,31.10
2019-06-27T20:41:18.114Z,31.10
2019-06-27T20:43:48.302Z,30.30
2019-06-27T20:46:18.530Z,30.90
2019-06-27T20:48:52.976Z,30.90
2019-06-27T20:51:21.030Z,30.70
2019-06-27T20:58:51.355Z,30.70
2019-06-27T21:01:22.565Z,30.70
2019-06-27T21:03:53.336Z,30.70
2019-06-27T21:08:53.107Z,32.60
2019-06-27T21:11:23.426Z,30.50
2019-06-27T21:13:54.559Z,30.50
2019-06-27T21:16:27.147Z,30.40
2019-06-27T21:18:57.506Z,30.90
2019-06-27T21:21:27.899Z,30.30
2019-06-27T21:23:58.152Z,30.20
2019-06-27T21:26:28.537Z,30.20
2019-06-27T21:28:59.002Z,30.10
2019-06-27T21:31:29.329Z,29.30
2019-06-27T21:39:07.408Z,29.90
2019-06-27T21:41:33.902Z,29.90
2019-06-27T21:49:04.047Z,29.70
2019-06-27T21:51:34.272Z,29.70
2019-06-27T21:54:06.403Z,29.60
2019-06-27T21:56:36.904Z,29.60
2019-06-27T21:59:07.682Z,29.50
2019-06-27T22:01:38.019Z,29.50
2019-06-27T22:06:38.749Z,29.40
2019-06-27T22:09:23.544Z,29.40
2019-06-27T22:11:41.134Z,29.30
2019-06-27T22:14:11.186Z,29.20
2019-06-27T22:16:41.362Z,29.30
2019-06-27T22:21:41.485Z,29.10
2019-06-27T22:24:11.636Z,29.00
2019-06-27T22:29:12.068Z,29.00
2019-06-27T22:31:42.475Z,29.00
2019-06-27T22:34:12.599Z,29.00
2019-06-27T22:36:43.055Z,29.00
2019-06-27T22:39:40.324Z,28.90
2019-06-27T22:42:20.616Z,29.00
2019-06-27T22:45:08.590Z,28.10
2019-06-27T22:47:56.488Z,28.90
2019-06-27T22:51:04.781Z,28.90
2019-06-27T22:53:40.452Z,28.80
2019-06-27T23:11:08.203Z,28.70
2019-06-27T23:13:38.262Z,28.70
2019-06-27T23:16:08.314Z,28.70
2019-06-27T23:18:40.279Z,28.70
2019-06-27T23:21:10.597Z,28.70
2019-06-27T23:23:40.731Z,28.70
2019-06-27T23:26:11.111Z,28.70
2019-06-27T23:28:41.445Z,28.70
2019-06-27T23:31:11.551Z,28.70
2019-06-27T23:33:43.583Z,28.70
2019-06-27T23:36:14.596Z,27.90
2019-06-27T23:38:45.689Z,28.70
2019-06-27T23:41:16.139Z,28.60
2019-06-27T23:43:46.194Z,28.70
2019-06-27T23:49:03.935Z,28.80
2019-06-27T23:51:34.486Z,28.80
2019-06-27T23:54:04.675Z,29.60
2019-06-27T23:56:35.101Z,28.70
